sensor_id;sensor_type;location;lat;lon;timestamp;pressure;altitude;pressure_sealevel;temperature;humidity
81005;BME280;70472;47.592;17.640;2023-06-19T00:00:07;99686.50;;;15.97;81.34
81005;BME280;70472;47.592;17.640;2023-06-19T00:00:42;99685.88;;;15.95;81.48
81005;BME280;70472;47.592;17.640;2023-06-19T00:01:15;99685.25;;;15.93;81.40
81005;BME280;70472;47.592;17.640;2023-06-19T00:01:47;99680.03;;;15.98;81.47
81005;BME280;70472;47.592;17.640;2023-06-19T00:02:20;99681.09;;;15.97;81.58
81005;BME280;70472;47.592;17.640;2023-06-19T00:02:52;99686.50;;;15.97;81.44
81005;BME280;70472;47.592;17.640;2023-06-19T00:03:25;99685.44;;;15.98;81.13
81005;BME280;70472;47.592;17.640;2023-06-19T00:03:57;99688.78;;;15.94;81.92
81005;BME280;70472;47.592;17.640;2023-06-19T00:04:29;99684.19;;;15.94;81.60
81005;BME280;70472;47.592;17.640;2023-06-19T00:05:02;99686.28;;;15.92;81.64
81005;BME280;70472;47.592;17.640;2023-06-19T00:05:35;99687.94;;;15.93;81.22
81005;BME280;70472;47.592;17.640;2023-06-19T00:06:07;99686.91;;;15.88;81.60
81005;BME280;70472;47.592;17.640;2023-06-19T00:06:40;99683.81;;;15.91;80.93
81005;BME280;70472;47.592;17.640;2023-06-19T00:07:12;99685.03;;;15.88;81.51
81005;BME280;70472;47.592;17.640;2023-06-19T00:07:45;99691.94;;;15.84;81.85
81005;BME280;70472;47.592;17.640;2023-06-19T00:08:17;99684.88;;;15.83;81.64
81005;BME280;70472;47.592;17.640;2023-06-19T00:08:49;99681.31;;;15.83;81.25
81005;BME280;70472;47.592;17.640;2023-06-19T00:09:22;99678.19;;;15.86;81.16
81005;BME280;70472;47.592;17.640;2023-06-19T00:09:54;99685.06;;;15.82;82.05
81005;BME280;70472;47.592;17.640;2023-06-19T00:10:27;99687.16;;;15.80;81.40
81005;BME280;70472;47.592;17.640;2023-06-19T00:10:59;99678.22;;;15.79;81.81
81005;BME280;70472;47.592;17.640;2023-06-19T00:11:32;99681.31;;;15.76;81.45
81005;BME280;70472;47.592;17.640;2023-06-19T00:12:05;99689.44;;;15.76;81.39
81005;BME280;70472;47.592;17.640;2023-06-19T00:12:38;99682.38;;;15.75;81.55
81005;BME280;70472;47.592;17.640;2023-06-19T00:13:10;99675.31;;;15.74;81.53
81005;BME280;70472;47.592;17.640;2023-06-19T00:13:42;99680.91;;;15.79;81.53
81005;BME280;70472;47.592;17.640;2023-06-19T00:14:15;99688.19;;;15.79;81.87
81005;BME280;70472;47.592;17.640;2023-06-19T00:14:47;99682.81;;;15.72;81.42
81005;BME280;70472;47.592;17.640;2023-06-19T00:15:20;99680.50;;;15.69;81.99
81005;BME280;70472;47.592;17.640;2023-06-19T00:15:52;99679.06;;;15.73;81.70
81005;BME280;70472;47.592;17.640;2023-06-19T00:16:25;99676.97;;;15.75;81.26
81005;BME280;70472;47.592;17.640;2023-06-19T00:16:58;99675.53;;;15.72;81.45
81005;BME280;70472;47.592;17.640;2023-06-19T00:17:30;99673.44;;;15.68;81.57
81005;BME280;70472;47.592;17.640;2023-06-19T00:18:03;99676.34;;;15.73;81.33
81005;BME280;70472;47.592;17.640;2023-06-19T00:18:35;99676.56;;;15.71;81.42
81005;BME280;70472;47.592;17.640;2023-06-19T00:19:09;99670.75;;;15.68;81.92
81005;BME280;70472;47.592;17.640;2023-06-19T00:19:43;99674.50;;;15.67;81.74
81005;BME280;70472;47.592;17.640;2023-06-19T00:20:15;99677.81;;;15.69;81.34
81005;BME280;70472;47.592;17.640;2023-06-19T00:20:48;99670.13;;;15.66;81.56
81005;BME280;70472;47.592;17.640;2023-06-19T00:21:23;99679.25;;;15.65;81.73
81005;BME280;70472;47.592;17.640;2023-06-19T00:21:56;99676.56;;;15.65;81.69
81005;BME280;70472;47.592;17.640;2023-06-19T00:22:29;99679.69;;;15.68;81.23
81005;BME280;70472;47.592;17.640;2023-06-19T00:23:01;99683.44;;;15.67;81.68
81005;BME280;70472;47.592;17.640;2023-06-19T00:23:34;99679.06;;;15.66;81.97
81005;BME280;70472;47.592;17.640;2023-06-19T00:24:06;99679.91;;;15.67;81.76
81005;BME280;70472;47.592;17.640;2023-06-19T00:24:39;99680.50;;;15.69;81.42
81005;BME280;70472;47.592;17.640;2023-06-19T00:25:11;99683.44;;;15.67;81.81
81005;BME280;70472;47.592;17.640;2023-06-19T00:25:44;99673.84;;;15.65;81.89
81005;BME280;70472;47.592;17.640;2023-06-19T00:26:16;99675.13;;;15.62;81.47
81005;BME280;70472;47.592;17.640;2023-06-19T00:26:49;99685.31;;;15.67;81.66
81005;BME280;70472;47.592;17.640;2023-06-19T00:27:22;99673.03;;;15.64;81.83
81005;BME280;70472;47.592;17.640;2023-06-19T00:27:54;99676.75;;;15.70;81.93
81005;BME280;70472;47.592;17.640;2023-06-19T00:28:28;99677.19;;;15.67;81.75
81005;BME280;70472;47.592;17.640;2023-06-19T00:29:01;99676.38;;;15.66;81.83
81005;BME280;70472;47.592;17.640;2023-06-19T00:29:33;99675.53;;;15.66;81.62
81005;BME280;70472;47.592;17.640;2023-06-19T00:30:06;99678.00;;;15.61;82.24
81005;BME280;70472;47.592;17.640;2023-06-19T00:30:42;99675.94;;;15.63;82.07
81005;BME280;70472;47.592;17.640;2023-06-19T00:31:16;99681.75;;;15.60;81.82
81005;BME280;70472;47.592;17.640;2023-06-19T00:31:48;99668.66;;;15.57;82.19
81005;BME280;70472;47.592;17.640;2023-06-19T00:32:21;99673.00;;;15.58;82.01
81005;BME280;70472;47.592;17.640;2023-06-19T00:32:54;99674.66;;;15.59;81.93
81005;BME280;70472;47.592;17.640;2023-06-19T00:33:27;99674.66;;;15.59;81.80
81005;BME280;70472;47.592;17.640;2023-06-19T00:34:00;99677.38;;;15.59;82.21
81005;BME280;70472;47.592;17.640;2023-06-19T00:34:33;99676.34;;;15.60;81.66
81005;BME280;70472;47.592;17.640;2023-06-19T00:35:07;99674.06;;;15.57;82.17
81005;BME280;70472;47.592;17.640;2023-06-19T00:35:40;99674.06;;;15.57;81.91
81005;BME280;70472;47.592;17.640;2023-06-19T00:36:15;99668.66;;;15.57;81.97
81005;BME280;70472;47.592;17.640;2023-06-19T00:36:51;99672.63;;;15.54;81.96
81005;BME280;70472;47.592;17.640;2023-06-19T00:37:24;99676.53;;;15.52;82.35
81005;BME280;70472;47.592;17.640;2023-06-19T00:37:58;99669.69;;;15.49;82.32
81005;BME280;70472;47.592;17.640;2023-06-19T00:38:30;99677.81;;;15.49;82.43
81005;BME280;70472;47.592;17.640;2023-06-19T00:39:03;99675.94;;;15.49;82.20
81005;BME280;70472;47.592;17.640;2023-06-19T00:39:35;99675.94;;;15.49;82.63
81005;BME280;70472;47.592;17.640;2023-06-19T00:40:19;99676.97;;;15.48;81.91
81005;BME280;70472;47.592;17.640;2023-06-19T00:40:57;99678.00;;;15.47;82.33
81005;BME280;70472;47.592;17.640;2023-06-19T00:41:30;99682.38;;;15.48;82.22
81005;BME280;70472;47.592;17.640;2023-06-19T00:42:04;99672.81;;;15.46;82.23
81005;BME280;70472;47.592;17.640;2023-06-19T00:42:37;99677.59;;;15.44;82.12
81005;BME280;70472;47.592;17.640;2023-06-19T00:43:09;99675.94;;;15.49;81.94
81005;BME280;70472;47.592;17.640;2023-06-19T00:43:42;99676.75;;;15.50;82.27
81005;BME280;70472;47.592;17.640;2023-06-19T00:44:15;99674.06;;;15.43;82.07
81005;BME280;70472;47.592;17.640;2023-06-19T00:44:47;99674.28;;;15.42;82.26
81005;BME280;70472;47.592;17.640;2023-06-19T00:45:20;99674.28;;;15.42;82.51
81005;BME280;70472;47.592;17.640;2023-06-19T00:45:52;99676.78;;;15.43;82.35
81005;BME280;70472;47.592;17.640;2023-06-19T00:46:25;99674.69;;;15.45;82.23
81005;BME280;70472;47.592;17.640;2023-06-19T00:47:02;99676.34;;;15.46;82.35
81005;BME280;70472;47.592;17.640;2023-06-19T00:47:35;99674.06;;;15.43;82.39
81005;BME280;70472;47.592;17.640;2023-06-19T00:48:09;99675.13;;;15.42;82.54
81005;BME280;70472;47.592;17.640;2023-06-19T00:48:41;99677.59;;;15.37;81.92
81005;BME280;70472;47.592;17.640;2023-06-19T00:49:15;99668.25;;;15.40;82.14
81005;BME280;70472;47.592;17.640;2023-06-19T00:49:48;99671.16;;;15.38;82.18
81005;BME280;70472;47.592;17.640;2023-06-19T00:50:21;99670.53;;;15.43;82.33
81005;BME280;70472;47.592;17.640;2023-06-19T00:50:56;99669.28;;;15.39;82.13
81005;BME280;70472;47.592;17.640;2023-06-19T00:51:29;99666.38;;;15.40;81.92
81005;BME280;70472;47.592;17.640;2023-06-19T00:52:02;99670.13;;;15.39;82.06
81005;BME280;70472;47.592;17.640;2023-06-19T00:52:34;99675.53;;;15.39;82.02
81005;BME280;70472;47.592;17.640;2023-06-19T00:53:07;99667.63;;;15.38;82.31
81005;BME280;70472;47.592;17.640;2023-06-19T00:53:39;99677.59;;;15.37;82.51
81005;BME280;70472;47.592;17.640;2023-06-19T00:54:12;99671.78;;;15.34;82.25
81005;BME280;70472;47.592;17.640;2023-06-19T00:54:45;99672.41;;;15.29;82.87
81005;BME280;70472;47.592;17.640;2023-06-19T00:55:18;99678.22;;;15.33;82.41
81005;BME280;70472;47.592;17.640;2023-06-19T00:55:53;99671.38;;;15.37;82.34
81005;BME280;70472;47.592;17.640;2023-06-19T00:56:26;99665.53;;;15.33;82.61
81005;BME280;70472;47.592;17.640;2023-06-19T00:56:59;99667.63;;;15.31;82.27
81005;BME280;70472;47.592;17.640;2023-06-19T00:57:32;99668.47;;;15.32;82.44
81005;BME280;70472;47.592;17.640;2023-06-19T00:58:06;99665.34;;;15.28;82.87
81005;BME280;70472;47.592;17.640;2023-06-19T00:58:38;99668.03;;;15.28;82.59
81005;BME280;70472;47.592;17.640;2023-06-19T00:59:16;99665.97;;;15.30;82.28
81005;BME280;70472;47.592;17.640;2023-06-19T00:59:49;99661.41;;;15.31;82.72
81005;BME280;70472;47.592;17.640;2023-06-19T01:00:22;99668.88;;;15.29;82.76
81005;BME280;70472;47.592;17.640;2023-06-19T01:00:54;99665.97;;;15.30;82.78
81005;BME280;70472;47.592;17.640;2023-06-19T01:01:31;99670.53;;;15.36;82.10
81005;BME280;70472;47.592;17.640;2023-06-19T01:02:04;99671.56;;;15.35;82.34
81005;BME280;70472;47.592;17.640;2023-06-19T01:02:36;99666.38;;;15.34;82.63
81005;BME280;70472;47.592;17.640;2023-06-19T01:03:09;99658.06;;;15.29;82.57
81005;BME280;70472;47.592;17.640;2023-06-19T01:03:42;99664.28;;;15.29;82.15
81005;BME280;70472;47.592;17.640;2023-06-19T01:04:15;99656.00;;;15.31;82.35
81005;BME280;70472;47.592;17.640;2023-06-19T01:04:50;99660.34;;;15.32;82.29
81005;BME280;70472;47.592;17.640;2023-06-19T01:05:22;99656.81;;;15.31;82.57
81005;BME280;70472;47.592;17.640;2023-06-19T01:05:57;99660.16;;;15.27;82.96
81005;BME280;70472;47.592;17.640;2023-06-19T01:06:56;99659.31;;;15.26;82.56
81005;BME280;70472;47.592;17.640;2023-06-19T01:08:03;99653.91;;;15.26;82.40
81005;BME280;70472;47.592;17.640;2023-06-19T01:08:45;99652.25;;;15.25;82.38
81005;BME280;70472;47.592;17.640;2023-06-19T01:09:22;99650.16;;;15.27;82.55
81005;BME280;70472;47.592;17.640;2023-06-19T01:10:02;99657.84;;;15.23;83.03
81005;BME280;70472;47.592;17.640;2023-06-19T01:10:44;99652.25;;;15.25;82.93
81005;BME280;70472;47.592;17.640;2023-06-19T01:11:31;99654.75;;;15.27;82.83
81005;BME280;70472;47.592;17.640;2023-06-19T01:12:14;99655.56;;;15.27;82.76
81005;BME280;70472;47.592;17.640;2023-06-19T01:13:23;99648.91;;;15.30;82.46
81005;BME280;70472;47.592;17.640;2023-06-19T01:14:09;99654.31;;;15.30;82.50
81005;BME280;70472;47.592;17.640;2023-06-19T01:14:55;99648.72;;;15.31;82.33
81005;BME280;70472;47.592;17.640;2023-06-19T01:15:29;99650.78;;;15.29;82.19
81005;BME280;70472;47.592;17.640;2023-06-19T01:16:03;99657.22;;;15.28;82.59
81005;BME280;70472;47.592;17.640;2023-06-19T01:16:39;99653.06;;;15.32;81.92
81005;BME280;70472;47.592;17.640;2023-06-19T01:17:12;99648.72;;;15.31;82.46
81005;BME280;70472;47.592;17.640;2023-06-19T01:17:46;99658.28;;;15.27;82.12
81005;BME280;70472;47.592;17.640;2023-06-19T01:18:20;99657.22;;;15.28;82.27
81005;BME280;70472;47.592;17.640;2023-06-19T01:18:53;99650.78;;;15.22;82.53
81005;BME280;70472;47.592;17.640;2023-06-19T01:19:27;99653.47;;;15.29;82.21
81005;BME280;70472;47.592;17.640;2023-06-19T01:20:01;99654.94;;;15.25;82.14
81005;BME280;70472;47.592;17.640;2023-06-19T01:20:34;99653.06;;;15.26;82.28
81005;BME280;70472;47.592;17.640;2023-06-19T01:21:17;99651.00;;;15.28;82.40
81005;BME280;70472;47.592;17.640;2023-06-19T01:21:50;99648.28;;;15.21;82.78
81005;BME280;70472;47.592;17.640;2023-06-19T01:22:30;99658.06;;;15.22;81.94
81005;BME280;70472;47.592;17.640;2023-06-19T01:23:10;99655.78;;;15.19;82.22
81005;BME280;70472;47.592;17.640;2023-06-19T01:23:44;99657.22;;;15.28;81.98
81005;BME280;70472;47.592;17.640;2023-06-19T01:24:17;99661.59;;;15.29;82.05
81005;BME280;70472;47.592;17.640;2023-06-19T01:24:50;99655.34;;;15.22;82.51
81005;BME280;70472;47.592;17.640;2023-06-19T01:25:24;99660.16;;;15.27;82.32
81005;BME280;70472;47.592;17.640;2023-06-19T01:25:56;99657.00;;;15.23;82.50
81005;BME280;70472;47.592;17.640;2023-06-19T01:26:29;99660.75;;;15.22;82.58
81005;BME280;70472;47.592;17.640;2023-06-19T01:27:02;99660.97;;;15.27;81.78
81005;BME280;70472;47.592;17.640;2023-06-19T01:27:34;99659.31;;;15.26;82.46
81005;BME280;70472;47.592;17.640;2023-06-19T01:28:10;99656.00;;;15.24;82.25
81005;BME280;70472;47.592;17.640;2023-06-19T01:28:45;99660.34;;;15.25;82.11
81005;BME280;70472;47.592;17.640;2023-06-19T01:29:19;99652.66;;;15.22;82.11
81005;BME280;70472;47.592;17.640;2023-06-19T01:29:52;99654.31;;;15.23;82.57
81005;BME280;70472;47.592;17.640;2023-06-19T01:30:25;99659.72;;;15.23;82.72
81005;BME280;70472;47.592;17.640;2023-06-19T01:31:00;99653.06;;;15.26;82.02
81005;BME280;70472;47.592;17.640;2023-06-19T01:31:54;99660.16;;;15.20;81.99
81005;BME280;70472;47.592;17.640;2023-06-19T01:33:29;99662.22;;;15.18;82.32
81005;BME280;70472;47.592;17.640;2023-06-19T01:34:07;99660.97;;;15.14;82.50
81005;BME280;70472;47.592;17.640;2023-06-19T01:34:42;99651.81;;;15.08;83.05
81005;BME280;70472;47.592;17.640;2023-06-19T01:35:19;99660.97;;;15.07;83.34
81005;BME280;70472;47.592;17.640;2023-06-19T01:35:52;99659.72;;;15.10;83.00
81005;BME280;70472;47.592;17.640;2023-06-19T01:36:26;99660.16;;;15.13;83.00
81005;BME280;70472;47.592;17.640;2023-06-19T01:37:05;99655.56;;;15.14;82.49
81005;BME280;70472;47.592;17.640;2023-06-19T01:37:40;99652.88;;;15.14;83.00
81005;BME280;70472;47.592;17.640;2023-06-19T01:38:14;99658.50;;;15.12;83.05
81005;BME280;70472;47.592;17.640;2023-06-19T01:38:49;99655.97;;;15.17;82.53
81005;BME280;70472;47.592;17.640;2023-06-19T01:39:23;99650.78;;;15.16;82.63
81005;BME280;70472;47.592;17.640;2023-06-19T01:39:57;99652.88;;;15.14;82.62
81005;BME280;70472;47.592;17.640;2023-06-19T01:40:32;99655.56;;;15.14;82.53
81005;BME280;70472;47.592;17.640;2023-06-19T01:41:07;99652.88;;;15.14;82.97
81005;BME280;70472;47.592;17.640;2023-06-19T01:41:41;99648.50;;;15.13;83.02
81005;BME280;70472;47.592;17.640;2023-06-19T01:42:15;99653.09;;;15.12;83.00
81005;BME280;70472;47.592;17.640;2023-06-19T01:42:48;99651.00;;;15.14;82.66
81005;BME280;70472;47.592;17.640;2023-06-19T01:43:21;99653.09;;;15.12;83.03
81005;BME280;70472;47.592;17.640;2023-06-19T01:43:57;99656.19;;;15.09;82.95
81005;BME280;70472;47.592;17.640;2023-06-19T01:44:33;99652.66;;;15.09;82.63
81005;BME280;70472;47.592;17.640;2023-06-19T01:45:07;99655.75;;;15.06;83.14
81005;BME280;70472;47.592;17.640;2023-06-19T01:45:41;99652.66;;;15.09;83.04
81005;BME280;70472;47.592;17.640;2023-06-19T01:46:14;99659.72;;;15.10;83.03
81005;BME280;70472;47.592;17.640;2023-06-19T01:46:50;99652.03;;;15.07;82.89
81005;BME280;70472;47.592;17.640;2023-06-19T01:47:23;99653.09;;;15.12;82.65
81005;BME280;70472;47.592;17.640;2023-06-19T01:47:56;99652.44;;;15.10;82.77
81005;BME280;70472;47.592;17.640;2023-06-19T01:48:29;99649.75;;;15.10;82.75
81005;BME280;70472;47.592;17.640;2023-06-19T01:49:01;99651.63;;;15.10;82.59
81005;BME280;70472;47.592;17.640;2023-06-19T01:49:38;99656.19;;;15.16;82.64
81005;BME280;70472;47.592;17.640;2023-06-19T01:50:11;99657.22;;;15.08;82.95
81005;BME280;70472;47.592;17.640;2023-06-19T01:50:48;99646.81;;;15.05;83.43
81005;BME280;70472;47.592;17.640;2023-06-19T01:51:21;99657.22;;;15.08;82.95
81005;BME280;70472;47.592;17.640;2023-06-19T01:51:53;99660.75;;;15.09;83.43
81005;BME280;70472;47.592;17.640;2023-06-19T01:52:27;99650.16;;;15.01;83.42
81005;BME280;70472;47.592;17.640;2023-06-19T01:52:59;99656.41;;;15.08;82.73
81005;BME280;70472;47.592;17.640;2023-06-19T01:53:32;99654.75;;;15.07;83.12
81005;BME280;70472;47.592;17.640;2023-06-19T01:54:04;99652.88;;;15.01;82.71
81005;BME280;70472;47.592;17.640;2023-06-19T01:54:37;99655.75;;;15.06;82.81
81005;BME280;70472;47.592;17.640;2023-06-19T01:55:09;99649.34;;;15.07;83.08
81005;BME280;70472;47.592;17.640;2023-06-19T01:55:42;99657.22;;;15.08;82.96
81005;BME280;70472;47.592;17.640;2023-06-19T01:56:15;99647.25;;;15.09;83.46
81005;BME280;70472;47.592;17.640;2023-06-19T01:56:47;99654.53;;;15.08;82.81
81005;BME280;70472;47.592;17.640;2023-06-19T01:57:20;99662.19;;;15.11;82.85
81005;BME280;70472;47.592;17.640;2023-06-19T01:57:52;99656.41;;;15.08;83.21
81005;BME280;70472;47.592;17.640;2023-06-19T01:58:25;99655.16;;;15.04;82.97
81005;BME280;70472;47.592;17.640;2023-06-19T01:58:57;99653.50;;;15.03;83.00
81005;BME280;70472;47.592;17.640;2023-06-19T01:59:30;99655.56;;;15.07;83.21
81005;BME280;70472;47.592;17.640;2023-06-19T02:00:04;99655.16;;;15.04;82.89
81005;BME280;70472;47.592;17.640;2023-06-19T02:00:44;99659.09;;;15.08;83.02
81005;BME280;70472;47.592;17.640;2023-06-19T02:01:17;99654.53;;;15.08;82.67
81005;BME280;70472;47.592;17.640;2023-06-19T02:01:49;99658.88;;;15.09;83.04
81005;BME280;70472;47.592;17.640;2023-06-19T02:02:22;99658.06;;;15.09;83.06
81005;BME280;70472;47.592;17.640;2023-06-19T02:02:54;99655.97;;;15.04;83.03
81005;BME280;70472;47.592;17.640;2023-06-19T02:03:28;99652.22;;;15.05;83.11
81005;BME280;70472;47.592;17.640;2023-06-19T02:04:00;99656.41;;;15.08;82.87
81005;BME280;70472;47.592;17.640;2023-06-19T02:04:33;99653.91;;;15.13;82.72
81005;BME280;70472;47.592;17.640;2023-06-19T02:05:08;99653.06;;;15.06;82.80
81005;BME280;70472;47.592;17.640;2023-06-19T02:05:41;99653.09;;;15.12;82.88
81005;BME280;70472;47.592;17.640;2023-06-19T02:06:13;99657.44;;;15.07;82.46
81005;BME280;70472;47.592;17.640;2023-06-19T02:06:46;99654.75;;;15.07;82.98
81005;BME280;70472;47.592;17.640;2023-06-19T02:07:19;99652.44;;;15.04;82.99
81005;BME280;70472;47.592;17.640;2023-06-19T02:07:52;99655.56;;;15.07;82.70
81005;BME280;70472;47.592;17.640;2023-06-19T02:08:24;99654.75;;;15.07;82.72
81005;BME280;70472;47.592;17.640;2023-06-19T02:08:57;99655.75;;;15.06;83.25
81005;BME280;70472;47.592;17.640;2023-06-19T02:09:29;99646.63;;;15.07;83.04
81005;BME280;70472;47.592;17.640;2023-06-19T02:10:02;99652.66;;;15.02;83.45
81005;BME280;70472;47.592;17.640;2023-06-19T02:10:35;99652.22;;;15.05;83.04
81005;BME280;70472;47.592;17.640;2023-06-19T02:11:07;99655.16;;;15.04;82.64
81005;BME280;70472;47.592;17.640;2023-06-19T02:11:40;99654.31;;;14.96;83.22
81005;BME280;70472;47.592;17.640;2023-06-19T02:12:12;99650.16;;;15.01;83.17
81005;BME280;70472;47.592;17.640;2023-06-19T02:12:45;99652.22;;;15.05;82.74
81005;BME280;70472;47.592;17.640;2023-06-19T02:13:17;99653.91;;;15.06;83.14
81005;BME280;70472;47.592;17.640;2023-06-19T02:13:49;99648.28;;;15.08;82.70
81005;BME280;70472;47.592;17.640;2023-06-19T02:14:23;99662.63;;;15.08;82.79
81005;BME280;70472;47.592;17.640;2023-06-19T02:14:56;99646.22;;;15.10;82.70
81005;BME280;70472;47.592;17.640;2023-06-19T02:15:28;99661.38;;;15.11;82.79
81005;BME280;70472;47.592;17.640;2023-06-19T02:16:01;99651.00;;;15.08;82.88
81005;BME280;70472;47.592;17.640;2023-06-19T02:16:33;99650.38;;;15.12;82.91
81005;BME280;70472;47.592;17.640;2023-06-19T02:17:06;99647.47;;;15.07;82.92
81005;BME280;70472;47.592;17.640;2023-06-19T02:17:39;99649.34;;;15.07;82.63
81005;BME280;70472;47.592;17.640;2023-06-19T02:18:12;99652.44;;;15.04;83.19
81005;BME280;70472;47.592;17.640;2023-06-19T02:18:44;99652.03;;;15.07;82.65
81005;BME280;70472;47.592;17.640;2023-06-19T02:19:17;99645.59;;;15.01;82.81
81005;BME280;70472;47.592;17.640;2023-06-19T02:19:49;99652.88;;;15.01;83.13
81005;BME280;70472;47.592;17.640;2023-06-19T02:20:23;99644.78;;;15.01;83.19
81005;BME280;70472;47.592;17.640;2023-06-19T02:20:56;99646.00;;;14.98;82.69
81005;BME280;70472;47.592;17.640;2023-06-19T02:21:28;99649.75;;;14.97;83.41
81005;BME280;70472;47.592;17.640;2023-06-19T02:22:01;99639.56;;;14.99;83.16
81005;BME280;70472;47.592;17.640;2023-06-19T02:22:33;99642.06;;;15.07;82.66
81005;BME280;70472;47.592;17.640;2023-06-19T02:23:06;99640.59;;;15.05;82.62
81005;BME280;70472;47.592;17.640;2023-06-19T02:23:38;99646.00;;;15.05;82.69
81005;BME280;70472;47.592;17.640;2023-06-19T02:24:12;99639.56;;;15.06;83.06
81005;BME280;70472;47.592;17.640;2023-06-19T02:24:44;99645.59;;;15.01;82.71
81005;BME280;70472;47.592;17.640;2023-06-19T02:25:18;99646.63;;;15.07;82.92
81005;BME280;70472;47.592;17.640;2023-06-19T02:25:52;99638.94;;;15.04;83.23
81005;BME280;70472;47.592;17.640;2023-06-19T02:26:24;99648.09;;;15.03;82.66
81005;BME280;70472;47.592;17.640;2023-06-19T02:26:57;99645.16;;;14.98;83.31
81005;BME280;70472;47.592;17.640;2023-06-19T02:27:29;99643.50;;;14.96;83.42
81005;BME280;70472;47.592;17.640;2023-06-19T02:28:03;99644.56;;;15.02;82.91
81005;BME280;70472;47.592;17.640;2023-06-19T02:28:36;99645.59;;;15.01;83.01
81005;BME280;70472;47.592;17.640;2023-06-19T02:29:10;99647.03;;;14.97;83.12
81005;BME280;70472;47.592;17.640;2023-06-19T02:29:42;99648.09;;;15.03;82.73
81005;BME280;70472;47.592;17.640;2023-06-19T02:30:15;99641.41;;;14.99;83.10
81005;BME280;70472;47.592;17.640;2023-06-19T02:30:48;99648.28;;;14.94;83.31
81005;BME280;70472;47.592;17.640;2023-06-19T02:31:22;99646.00;;;14.91;82.92
81005;BME280;70472;47.592;17.640;2023-06-19T02:31:55;99642.69;;;14.96;83.00
81005;BME280;70472;47.592;17.640;2023-06-19T02:32:27;99642.25;;;14.92;83.76
81005;BME280;70472;47.592;17.640;2023-06-19T02:33:00;99643.94;;;15.00;82.92
81005;BME280;70472;47.592;17.640;2023-06-19T02:33:32;99651.00;;;15.01;82.95
81005;BME280;70472;47.592;17.640;2023-06-19T02:34:05;99645.59;;;14.94;83.03
81005;BME280;70472;47.592;17.640;2023-06-19T02:34:37;99643.09;;;15.00;82.83
81005;BME280;70472;47.592;17.640;2023-06-19T02:35:11;99643.50;;;14.96;83.37
81005;BME280;70472;47.592;17.640;2023-06-19T02:35:43;99643.91;;;14.93;83.05
81005;BME280;70472;47.592;17.640;2023-06-19T02:36:16;99642.47;;;14.98;83.17
81005;BME280;70472;47.592;17.640;2023-06-19T02:36:48;99643.72;;;14.95;83.30
81005;BME280;70472;47.592;17.640;2023-06-19T02:37:20;99643.91;;;14.93;83.20
81005;BME280;70472;47.592;17.640;2023-06-19T02:37:53;99637.50;;;14.94;83.43
81005;BME280;70472;47.592;17.640;2023-06-19T02:38:26;99639.34;;;14.94;83.24
81005;BME280;70472;47.592;17.640;2023-06-19T02:38:59;99639.97;;;14.89;83.32
81005;BME280;70472;47.592;17.640;2023-06-19T02:39:32;99641.63;;;14.90;83.01
81005;BME280;70472;47.592;17.640;2023-06-19T02:40:06;99642.84;;;14.88;83.11
81005;BME280;70472;47.592;17.640;2023-06-19T02:40:39;99634.97;;;14.86;83.48
81005;BME280;70472;47.592;17.640;2023-06-19T02:41:11;99635.81;;;14.93;83.08
81005;BME280;70472;47.592;17.640;2023-06-19T02:41:44;99637.91;;;14.91;83.10
81005;BME280;70472;47.592;17.640;2023-06-19T02:42:16;99633.94;;;14.87;83.64
81005;BME280;70472;47.592;17.640;2023-06-19T02:42:49;99637.69;;;14.86;83.34
81005;BME280;70472;47.592;17.640;2023-06-19T02:43:21;99640.16;;;14.88;83.44
81005;BME280;70472;47.592;17.640;2023-06-19T02:43:54;99633.94;;;14.87;83.08
81005;BME280;70472;47.592;17.640;2023-06-19T02:44:26;99634.97;;;14.86;83.49
81005;BME280;70472;47.592;17.640;2023-06-19T02:44:59;99641.84;;;14.95;83.12
81005;BME280;70472;47.592;17.640;2023-06-19T02:45:31;99634.97;;;14.86;83.37
81005;BME280;70472;47.592;17.640;2023-06-19T02:46:04;99633.31;;;14.85;83.61
81005;BME280;70472;47.592;17.640;2023-06-19T02:46:36;99637.28;;;14.89;83.22
81005;BME280;70472;47.592;17.640;2023-06-19T02:47:09;99644.56;;;14.89;83.21
81005;BME280;70472;47.592;17.640;2023-06-19T02:47:43;99636.84;;;14.86;83.20
81005;BME280;70472;47.592;17.640;2023-06-19T02:48:16;99636.63;;;14.87;83.45
81005;BME280;70472;47.592;17.640;2023-06-19T02:48:49;99636.22;;;14.90;83.29
81005;BME280;70472;47.592;17.640;2023-06-19T02:49:21;99638.94;;;14.90;83.51
81005;BME280;70472;47.592;17.640;2023-06-19T02:49:54;99640.16;;;14.88;83.54
81005;BME280;70472;47.592;17.640;2023-06-19T02:50:26;99639.97;;;14.89;82.73
81005;BME280;70472;47.592;17.640;2023-06-19T02:50:58;99640.59;;;14.91;83.27
81005;BME280;70472;47.592;17.640;2023-06-19T02:51:31;99637.28;;;14.89;83.10
81005;BME280;70472;47.592;17.640;2023-06-19T02:52:05;99643.06;;;14.93;83.25
81005;BME280;70472;47.592;17.640;2023-06-19T02:52:37;99640.59;;;14.91;83.60
81005;BME280;70472;47.592;17.640;2023-06-19T02:53:10;99643.28;;;14.91;83.59
81005;BME280;70472;47.592;17.640;2023-06-19T02:53:42;99642.03;;;14.87;83.40
81005;BME280;70472;47.592;17.640;2023-06-19T02:54:15;99642.25;;;14.92;83.45
81005;BME280;70472;47.592;17.640;2023-06-19T02:54:47;99647.25;;;14.95;83.58
81005;BME280;70472;47.592;17.640;2023-06-19T02:55:20;99642.91;;;14.94;83.33
81005;BME280;70472;47.592;17.640;2023-06-19T02:55:52;99640.81;;;14.90;83.15
81005;BME280;70472;47.592;17.640;2023-06-19T02:56:26;99643.28;;;14.91;83.25
81005;BME280;70472;47.592;17.640;2023-06-19T02:56:59;99641.03;;;14.88;83.34
81005;BME280;70472;47.592;17.640;2023-06-19T02:57:31;99645.78;;;14.86;83.70
81005;BME280;70472;47.592;17.640;2023-06-19T02:58:04;99638.31;;;14.88;83.76